sensor_id;sensor_type;location;lat;lon;timestamp;P1;durP1;ratioP1;P2;durP2;ratioP2
74793;SDS011;63320;50.768;6.724;2023-03-24T00:00:12;3.10;;;1.50;;
74793;SDS011;63320;50.768;6.724;2023-03-24T00:02:39;3.85;;;1.48;;
74793;SDS011;63320;50.768;6.724;2023-03-24T00:05:06;4.40;;;1.40;;
74793;SDS011;63320;50.768;6.724;2023-03-24T00:07:32;3.45;;;1.40;;
74793;SDS011;63320;50.768;6.724;2023-03-24T00:09:59;4.53;;;1.48;;
74793;SDS011;63320;50.768;6.724;2023-03-24T00:12:25;5.03;;;1.48;;
74793;SDS011;63320;50.768;6.724;2023-03-24T00:14:50;3.95;;;1.50;;
74793;SDS011;63320;50.768;6.724;2023-03-24T00:17:16;3.75;;;1.50;;
74793;SDS011;63320;50.768;6.724;2023-03-24T00:19:41;3.13;;;1.45;;
74793;SDS011;63320;50.768;6.724;2023-03-24T00:22:07;3.55;;;1.50;;
74793;SDS011;63320;50.768;6.724;2023-03-24T00:24:33;5.03;;;1.73;;
74793;SDS011;63320;50.768;6.724;2023-03-24T00:27:00;4.20;;;1.48;;
74793;SDS011;63320;50.768;6.724;2023-03-24T00:29:26;4.13;;;1.50;;
74793;SDS011;63320;50.768;6.724;2023-03-24T00:31:51;3.92;;;1.60;;
74793;SDS011;63320;50.768;6.724;2023-03-24T00:34:17;4.70;;;1.50;;
74793;SDS011;63320;50.768;6.724;2023-03-24T00:36:43;5.68;;;1.63;;
74793;SDS011;63320;50.768;6.724;2023-03-24T00:39:09;6.07;;;1.90;;
74793;SDS011;63320;50.768;6.724;2023-03-24T00:41:34;4.38;;;1.80;;
74793;SDS011;63320;50.768;6.724;2023-03-24T00:44:01;4.38;;;1.60;;
74793;SDS011;63320;50.768;6.724;2023-03-24T00:46:26;4.95;;;1.80;;
74793;SDS011;63320;50.768;6.724;2023-03-24T00:48:52;4.35;;;1.85;;
74793;SDS011;63320;50.768;6.724;2023-03-24T00:51:17;4.03;;;1.73;;
74793;SDS011;63320;50.768;6.724;2023-03-24T00:53:43;5.18;;;1.63;;
74793;SDS011;63320;50.768;6.724;2023-03-24T00:56:08;4.57;;;1.50;;
74793;SDS011;63320;50.768;6.724;2023-03-24T00:58:33;3.20;;;1.38;;
74793;SDS011;63320;50.768;6.724;2023-03-24T01:01:00;4.22;;;1.70;;
74793;SDS011;63320;50.768;6.724;2023-03-24T01:03:25;4.57;;;1.63;;
74793;SDS011;63320;50.768;6.724;2023-03-24T01:05:51;3.60;;;1.42;;
74793;SDS011;63320;50.768;6.724;2023-03-24T01:08:17;4.22;;;1.60;;
74793;SDS011;63320;50.768;6.724;2023-03-24T01:10:43;5.47;;;2.30;;
74793;SDS011;63320;50.768;6.724;2023-03-24T01:13:08;5.93;;;1.67;;
74793;SDS011;63320;50.768;6.724;2023-03-24T01:15:33;4.47;;;1.80;;
74793;SDS011;63320;50.768;6.724;2023-03-24T01:18:00;5.32;;;1.80;;
74793;SDS011;63320;50.768;6.724;2023-03-24T01:20:27;4.43;;;1.80;;
74793;SDS011;63320;50.768;6.724;2023-03-24T01:22:53;4.40;;;1.83;;
74793;SDS011;63320;50.768;6.724;2023-03-24T01:25:19;4.28;;;1.92;;
74793;SDS011;63320;50.768;6.724;2023-03-24T01:27:46;5.55;;;1.70;;
74793;SDS011;63320;50.768;6.724;2023-03-24T01:30:14;5.10;;;2.20;;
74793;SDS011;63320;50.768;6.724;2023-03-24T01:32:40;4.97;;;2.10;;
74793;SDS011;63320;50.768;6.724;2023-03-24T01:35:07;5.03;;;1.70;;
74793;SDS011;63320;50.768;6.724;2023-03-24T01:37:32;3.85;;;1.75;;
74793;SDS011;63320;50.768;6.724;2023-03-24T01:39:58;4.57;;;1.70;;
74793;SDS011;63320;50.768;6.724;2023-03-24T01:42:24;4.03;;;1.60;;
74793;SDS011;63320;50.768;6.724;2023-03-24T01:44:53;4.90;;;1.70;;
74793;SDS011;63320;50.768;6.724;2023-03-24T01:47:21;5.63;;;1.90;;
74793;SDS011;63320;50.768;6.724;2023-03-24T01:49:48;4.68;;;1.80;;
74793;SDS011;63320;50.768;6.724;2023-03-24T01:52:20;5.43;;;2.03;;
74793;SDS011;63320;50.768;6.724;2023-03-24T01:54:48;4.10;;;2.10;;
74793;SDS011;63320;50.768;6.724;2023-03-24T01:57:18;3.78;;;1.85;;
74793;SDS011;63320;50.768;6.724;2023-03-24T01:59:48;4.18;;;1.90;;
74793;SDS011;63320;50.768;6.724;2023-03-24T02:02:15;5.35;;;2.42;;
74793;SDS011;63320;50.768;6.724;2023-03-24T02:04:42;4.78;;;2.20;;
74793;SDS011;63320;50.768;6.724;2023-03-24T02:07:09;4.82;;;2.20;;
74793;SDS011;63320;50.768;6.724;2023-03-24T02:09:41;4.22;;;2.13;;
74793;SDS011;63320;50.768;6.724;2023-03-24T02:12:06;5.95;;;2.50;;
74793;SDS011;63320;50.768;6.724;2023-03-24T02:14:32;4.53;;;2.10;;
74793;SDS011;63320;50.768;6.724;2023-03-24T02:17:11;5.88;;;2.42;;
74793;SDS011;63320;50.768;6.724;2023-03-24T02:19:59;5.80;;;2.53;;
74793;SDS011;63320;50.768;6.724;2023-03-24T02:23:03;5.45;;;2.72;;
74793;SDS011;63320;50.768;6.724;2023-03-24T02:25:56;6.45;;;2.53;;
74793;SDS011;63320;50.768;6.724;2023-03-24T02:28:45;5.05;;;2.45;;
74793;SDS011;63320;50.768;6.724;2023-03-24T02:34:38;4.57;;;2.30;;
74793;SDS011;63320;50.768;6.724;2023-03-24T02:37:28;6.35;;;2.53;;
74793;SDS011;63320;50.768;6.724;2023-03-24T02:40:11;5.45;;;2.50;;
74793;SDS011;63320;50.768;6.724;2023-03-24T02:42:49;5.18;;;2.72;;
74793;SDS011;63320;50.768;6.724;2023-03-24T02:45:25;8.13;;;2.58;;
74793;SDS011;63320;50.768;6.724;2023-03-24T02:48:00;5.65;;;2.60;;
74793;SDS011;63320;50.768;6.724;2023-03-24T02:50:38;5.63;;;2.55;;
74793;SDS011;63320;50.768;6.724;2023-03-24T02:53:10;6.15;;;2.70;;
74793;SDS011;63320;50.768;6.724;2023-03-24T02:55:45;5.20;;;2.50;;
74793;SDS011;63320;50.768;6.724;2023-03-24T02:58:17;5.32;;;2.70;;
74793;SDS011;63320;50.768;6.724;2023-03-24T03:00:48;8.38;;;2.72;;
74793;SDS011;63320;50.768;6.724;2023-03-24T03:03:18;4.75;;;2.40;;
74793;SDS011;63320;50.768;6.724;2023-03-24T03:05:49;5.90;;;2.63;;
74793;SDS011;63320;50.768;6.724;2023-03-24T03:08:18;4.95;;;2.58;;
74793;SDS011;63320;50.768;6.724;2023-03-24T03:10:48;5.40;;;2.58;;
74793;SDS011;63320;50.768;6.724;2023-03-24T03:13:18;6.60;;;2.83;;
74793;SDS011;63320;50.768;6.724;2023-03-24T03:15:49;4.95;;;2.80;;
74793;SDS011;63320;50.768;6.724;2023-03-24T03:18:19;5.90;;;2.85;;
74793;SDS011;63320;50.768;6.724;2023-03-24T03:20:51;6.45;;;2.95;;
74793;SDS011;63320;50.768;6.724;2023-03-24T03:23:22;6.60;;;2.70;;
74793;SDS011;63320;50.768;6.724;2023-03-24T03:25:54;5.55;;;2.63;;
74793;SDS011;63320;50.768;6.724;2023-03-24T03:28:25;5.50;;;2.50;;
74793;SDS011;63320;50.768;6.724;2023-03-24T03:30:53;6.85;;;2.85;;
74793;SDS011;63320;50.768;6.724;2023-03-24T03:33:22;5.03;;;2.70;;
74793;SDS011;63320;50.768;6.724;2023-03-24T03:35:51;5.20;;;2.65;;
74793;SDS011;63320;50.768;6.724;2023-03-24T03:38:19;6.20;;;3.13;;
74793;SDS011;63320;50.768;6.724;2023-03-24T03:40:49;5.53;;;2.70;;
74793;SDS011;63320;50.768;6.724;2023-03-24T03:43:17;6.50;;;2.67;;
74793;SDS011;63320;50.768;6.724;2023-03-24T03:45:43;4.78;;;2.40;;
74793;SDS011;63320;50.768;6.724;2023-03-24T03:48:09;5.85;;;2.22;;
74793;SDS011;63320;50.768;6.724;2023-03-24T03:50:35;6.40;;;2.13;;
74793;SDS011;63320;50.768;6.724;2023-03-24T03:53:01;5.10;;;2.22;;
74793;SDS011;63320;50.768;6.724;2023-03-24T03:55:26;4.43;;;1.80;;
74793;SDS011;63320;50.768;6.724;2023-03-24T03:57:52;4.60;;;1.95;;
74793;SDS011;63320;50.768;6.724;2023-03-24T04:00:20;5.20;;;2.00;;
74793;SDS011;63320;50.768;6.724;2023-03-24T04:02:50;3.83;;;1.58;;
74793;SDS011;63320;50.768;6.724;2023-03-24T04:05:25;4.10;;;1.58;;
74793;SDS011;63320;50.768;6.724;2023-03-24T04:08:07;5.00;;;1.70;;
74793;SDS011;63320;50.768;6.724;2023-03-24T04:10:44;3.15;;;1.40;;
74793;SDS011;63320;50.768;6.724;2023-03-24T04:13:21;4.07;;;1.60;;
74793;SDS011;63320;50.768;6.724;2023-03-24T04:15:57;3.92;;;1.55;;
74793;SDS011;63320;50.768;6.724;2023-03-24T04:18:42;3.53;;;1.50;;
74793;SDS011;63320;50.768;6.724;2023-03-24T04:21:24;5.07;;;1.50;;
74793;SDS011;63320;50.768;6.724;2023-03-24T04:24:04;3.35;;;1.23;;
74793;SDS011;63320;50.768;6.724;2023-03-24T04:26:45;4.15;;;1.58;;
74793;SDS011;63320;50.768;6.724;2023-03-24T04:29:17;4.35;;;1.40;;
74793;SDS011;63320;50.768;6.724;2023-03-24T04:31:50;4.65;;;1.60;;
74793;SDS011;63320;50.768;6.724;2023-03-24T04:34:21;3.70;;;1.42;;
74793;SDS011;63320;50.768;6.724;2023-03-24T04:36:51;5.22;;;1.42;;
74793;SDS011;63320;50.768;6.724;2023-03-24T04:39:21;3.17;;;1.33;;
74793;SDS011;63320;50.768;6.724;2023-03-24T04:41:51;3.80;;;1.40;;
74793;SDS011;63320;50.768;6.724;2023-03-24T04:44:18;4.88;;;1.50;;
74793;SDS011;63320;50.768;6.724;2023-03-24T04:46:44;2.78;;;1.05;;
74793;SDS011;63320;50.768;6.724;2023-03-24T04:49:11;3.45;;;1.23;;
74793;SDS011;63320;50.768;6.724;2023-03-24T04:51:36;4.43;;;1.50;;
74793;SDS011;63320;50.768;6.724;2023-03-24T04:54:02;7.75;;;1.35;;
74793;SDS011;63320;50.768;6.724;2023-03-24T04:56:29;5.22;;;1.30;;
74793;SDS011;63320;50.768;6.724;2023-03-24T04:58:58;3.05;;;0.90;;
74793;SDS011;63320;50.768;6.724;2023-03-24T05:01:24;3.05;;;1.00;;
74793;SDS011;63320;50.768;6.724;2023-03-24T05:03:50;3.33;;;1.00;;
74793;SDS011;63320;50.768;6.724;2023-03-24T05:06:16;3.53;;;1.08;;
74793;SDS011;63320;50.768;6.724;2023-03-24T05:08:42;3.35;;;1.00;;
74793;SDS011;63320;50.768;6.724;2023-03-24T05:11:07;3.92;;;1.00;;
74793;SDS011;63320;50.768;6.724;2023-03-24T05:13:32;3.50;;;1.05;;
74793;SDS011;63320;50.768;6.724;2023-03-24T05:15:58;2.95;;;1.05;;
74793;SDS011;63320;50.768;6.724;2023-03-24T05:18:23;2.55;;;0.82;;
74793;SDS011;63320;50.768;6.724;2023-03-24T05:20:49;3.72;;;0.90;;
74793;SDS011;63320;50.768;6.724;2023-03-24T05:23:16;4.50;;;1.08;;
74793;SDS011;63320;50.768;6.724;2023-03-24T05:25:41;2.97;;;1.10;;
74793;SDS011;63320;50.768;6.724;2023-03-24T05:28:06;4.78;;;1.17;;
74793;SDS011;63320;50.768;6.724;2023-03-24T05:30:32;4.63;;;1.20;;
74793;SDS011;63320;50.768;6.724;2023-03-24T05:32:57;4.78;;;1.23;;
74793;SDS011;63320;50.768;6.724;2023-03-24T05:35:23;3.33;;;1.10;;
74793;SDS011;63320;50.768;6.724;2023-03-24T05:37:48;5.13;;;1.30;;
74793;SDS011;63320;50.768;6.724;2023-03-24T05:40:15;5.65;;;1.40;;
74793;SDS011;63320;50.768;6.724;2023-03-24T05:42:41;3.65;;;1.58;;
74793;SDS011;63320;50.768;6.724;2023-03-24T05:45:07;3.90;;;1.20;;
74793;SDS011;63320;50.768;6.724;2023-03-24T05:47:33;4.60;;;1.50;;
74793;SDS011;63320;50.768;6.724;2023-03-24T05:49:59;6.75;;;1.88;;
74793;SDS011;63320;50.768;6.724;2023-03-24T05:52:24;5.38;;;1.50;;
74793;SDS011;63320;50.768;6.724;2023-03-24T05:54:49;4.78;;;1.48;;
74793;SDS011;63320;50.768;6.724;2023-03-24T05:57:16;4.43;;;1.45;;
74793;SDS011;63320;50.768;6.724;2023-03-24T05:59:43;7.18;;;1.70;;
74793;SDS011;63320;50.768;6.724;2023-03-24T06:02:08;5.82;;;1.58;;
74793;SDS011;63320;50.768;6.724;2023-03-24T06:04:34;4.85;;;1.40;;
74793;SDS011;63320;50.768;6.724;2023-03-24T06:07:00;5.35;;;1.70;;
74793;SDS011;63320;50.768;6.724;2023-03-24T06:09:26;4.03;;;1.48;;
74793;SDS011;63320;50.768;6.724;2023-03-24T06:11:53;8.82;;;1.90;;
74793;SDS011;63320;50.768;6.724;2023-03-24T06:14:20;7.60;;;1.98;;
74793;SDS011;63320;50.768;6.724;2023-03-24T06:16:46;5.90;;;1.50;;
74793;SDS011;63320;50.768;6.724;2023-03-24T06:19:11;4.40;;;1.45;;
74793;SDS011;63320;50.768;6.724;2023-03-24T06:21:36;4.25;;;1.35;;
74793;SDS011;63320;50.768;6.724;2023-03-24T06:24:02;6.53;;;1.33;;
74793;SDS011;63320;50.768;6.724;2023-03-24T06:26:27;5.60;;;1.65;;
74793;SDS011;63320;50.768;6.724;2023-03-24T06:28:52;4.40;;;1.50;;
74793;SDS011;63320;50.768;6.724;2023-03-24T06:31:19;4.78;;;1.35;;
74793;SDS011;63320;50.768;6.724;2023-03-24T06:33:45;4.88;;;1.38;;
74793;SDS011;63320;50.768;6.724;2023-03-24T06:36:11;4.32;;;1.45;;
74793;SDS011;63320;50.768;6.724;2023-03-24T06:38:37;6.10;;;1.60;;
74793;SDS011;63320;50.768;6.724;2023-03-24T06:41:03;10.07;;;2.15;;
74793;SDS011;63320;50.768;6.724;2023-03-24T06:43:29;6.00;;;1.70;;
74793;SDS011;63320;50.768;6.724;2023-03-24T06:45:54;5.40;;;1.33;;
74793;SDS011;63320;50.768;6.724;2023-03-24T06:48:21;5.78;;;1.80;;
74793;SDS011;63320;50.768;6.724;2023-03-24T06:50:46;7.65;;;1.63;;
74793;SDS011;63320;50.768;6.724;2023-03-24T06:53:12;6.00;;;1.70;;
74793;SDS011;63320;50.768;6.724;2023-03-24T06:55:37;7.18;;;1.70;;
74793;SDS011;63320;50.768;6.724;2023-03-24T06:58:03;7.68;;;1.63;;
74793;SDS011;63320;50.768;6.724;2023-03-24T07:00:28;7.07;;;1.60;;
74793;SDS011;63320;50.768;6.724;2023-03-24T07:02:53;7.85;;;1.75;;
74793;SDS011;63320;50.768;6.724;2023-03-24T07:05:20;9.60;;;2.28;;
74793;SDS011;63320;50.768;6.724;2023-03-24T07:07:46;6.57;;;1.98;;
74793;SDS011;63320;50.768;6.724;2023-03-24T07:10:12;10.32;;;2.13;;
74793;SDS011;63320;50.768;6.724;2023-03-24T07:12:38;8.88;;;2.50;;
74793;SDS011;63320;50.768;6.724;2023-03-24T07:15:04;6.78;;;2.22;;
74793;SDS011;63320;50.768;6.724;2023-03-24T07:17:30;8.93;;;2.47;;
74793;SDS011;63320;50.768;6.724;2023-03-24T07:19:55;6.95;;;2.17;;
74793;SDS011;63320;50.768;6.724;2023-03-24T07:22:22;9.45;;;1.85;;
74793;SDS011;63320;50.768;6.724;2023-03-24T07:24:47;11.93;;;2.25;;
74793;SDS011;63320;50.768;6.724;2023-03-24T07:27:13;10.05;;;2.95;;
74793;SDS011;63320;50.768;6.724;2023-03-24T07:29:38;11.68;;;2.35;;
74793;SDS011;63320;50.768;6.724;2023-03-24T07:32:03;8.90;;;2.15;;
74793;SDS011;63320;50.768;6.724;2023-03-24T07:34:29;9.88;;;2.03;;
74793;SDS011;63320;50.768;6.724;2023-03-24T07:36:54;11.40;;;2.53;;
74793;SDS011;63320;50.768;6.724;2023-03-24T07:39:21;10.27;;;2.30;;
74793;SDS011;63320;50.768;6.724;2023-03-24T07:41:47;12.20;;;2.15;;
74793;SDS011;63320;50.768;6.724;2023-03-24T07:44:12;8.32;;;1.95;;
74793;SDS011;63320;50.768;6.724;2023-03-24T07:46:38;8.10;;;1.80;;
74793;SDS011;63320;50.768;6.724;2023-03-24T07:49:03;9.88;;;1.80;;
74793;SDS011;63320;50.768;6.724;2023-03-24T07:51:29;8.10;;;1.67;;
74793;SDS011;63320;50.768;6.724;2023-03-24T07:53:54;9.82;;;2.25;;
74793;SDS011;63320;50.768;6.724;2023-03-24T07:56:21;7.95;;;1.80;;
74793;SDS011;63320;50.768;6.724;2023-03-24T07:58:46;10.13;;;1.88;;
74793;SDS011;63320;50.768;6.724;2023-03-24T08:01:12;12.18;;;2.17;;
74793;SDS011;63320;50.768;6.724;2023-03-24T08:03:38;9.20;;;1.88;;
74793;SDS011;63320;50.768;6.724;2023-03-24T08:06:04;12.23;;;2.13;;
74793;SDS011;63320;50.768;6.724;2023-03-24T08:08:30;8.35;;;1.67;;
74793;SDS011;63320;50.768;6.724;2023-03-24T08:10:55;9.40;;;1.95;;
74793;SDS011;63320;50.768;6.724;2023-03-24T08:13:22;7.53;;;1.85;;
74793;SDS011;63320;50.768;6.724;2023-03-24T08:15:48;12.25;;;2.03;;
74793;SDS011;63320;50.768;6.724;2023-03-24T08:18:13;9.00;;;1.70;;
74793;SDS011;63320;50.768;6.724;2023-03-24T08:20:39;9.98;;;1.80;;
74793;SDS011;63320;50.768;6.724;2023-03-24T08:23:04;9.77;;;1.60;;
74793;SDS011;63320;50.768;6.724;2023-03-24T08:25:29;9.57;;;1.52;;
74793;SDS011;63320;50.768;6.724;2023-03-24T08:27:55;9.02;;;1.95;;
74793;SDS011;63320;50.768;6.724;2023-03-24T08:30:22;7.53;;;1.95;;
74793;SDS011;63320;50.768;6.724;2023-03-24T08:32:50;9.30;;;1.58;;
74793;SDS011;63320;50.768;6.724;2023-03-24T08:35:18;7.97;;;1.73;;
74793;SDS011;63320;50.768;6.724;2023-03-24T08:37:45;9.48;;;1.67;;
74793;SDS011;63320;50.768;6.724;2023-03-24T08:40:11;12.27;;;1.65;;
74793;SDS011;63320;50.768;6.724;2023-03-24T08:42:37;9.98;;;2.55;;
74793;SDS011;63320;50.768;6.724;2023-03-24T08:45:03;9.77;;;1.75;;
74793;SDS011;63320;50.768;6.724;2023-03-24T08:47:30;9.95;;;1.92;;
74793;SDS011;63320;50.768;6.724;2023-03-24T08:49:56;11.30;;;1.90;;
74793;SDS011;63320;50.768;6.724;2023-03-24T08:52:21;7.80;;;1.40;;
74793;SDS011;63320;50.768;6.724;2023-03-24T08:54:47;12.13;;;1.70;;
74793;SDS011;63320;50.768;6.724;2023-03-24T08:57:12;8.85;;;1.70;;
74793;SDS011;63320;50.768;6.724;2023-03-24T08:59:37;9.38;;;1.75;;
74793;SDS011;63320;50.768;6.724;2023-03-24T09:02:03;10.43;;;2.10;;
74793;SDS011;63320;50.768;6.724;2023-03-24T09:04:29;11.82;;;1.83;;
74793;SDS011;63320;50.768;6.724;2023-03-24T09:06:55;11.30;;;1.73;;
74793;SDS011;63320;50.768;6.724;2023-03-24T09:09:20;10.80;;;1.63;;
74793;SDS011;63320;50.768;6.724;2023-03-24T09:11:45;7.50;;;1.45;;
74793;SDS011;63320;50.768;6.724;2023-03-24T09:14:11;10.35;;;1.70;;
74793;SDS011;63320;50.768;6.724;2023-03-24T09:16:36;8.82;;;1.90;;
74793;SDS011;63320;50.768;6.724;2023-03-24T09:19:01;9.13;;;1.60;;
74793;SDS011;63320;50.768;6.724;2023-03-24T09:21:28;8.38;;;1.77;;
74793;SDS011;63320;50.768;6.724;2023-03-24T09:23:53;8.15;;;1.38;;
74793;SDS011;63320;50.768;6.724;2023-03-24T09:26:19;9.98;;;1.50;;
74793;SDS011;63320;50.768;6.724;2023-03-24T09:28:44;7.55;;;1.10;;
74793;SDS011;63320;50.768;6.724;2023-03-24T09:31:10;12.25;;;1.95;;
74793;SDS011;63320;50.768;6.724;2023-03-24T09:33:35;10.45;;;1.63;;
74793;SDS011;63320;50.768;6.724;2023-03-24T09:36:01;8.93;;;1.15;;
74793;SDS011;63320;50.768;6.724;2023-03-24T09:38:30;8.55;;;1.23;;
74793;SDS011;63320;50.768;6.724;2023-03-24T09:40:56;10.35;;;1.50;;
74793;SDS011;63320;50.768;6.724;2023-03-24T09:43:25;9.50;;;1.30;;
74793;SDS011;63320;50.768;6.724;2023-03-24T09:45:55;6.20;;;1.30;;
74793;SDS011;63320;50.768;6.724;2023-03-24T09:48:25;6.95;;;1.08;;
74793;SDS011;63320;50.768;6.724;2023-03-24T09:50:56;9.40;;;1.25;;
74793;SDS011;63320;50.768;6.724;2023-03-24T09:53:27;8.80;;;1.45;;
74793;SDS011;63320;50.768;6.724;2023-03-24T09:56:02;8.18;;;1.08;;
74793;SDS011;63320;50.768;6.724;2023-03-24T09:58:34;8.27;;;1.65;;
74793;SDS011;63320;50.768;6.724;2023-03-24T10:00:59;8.50;;;1.40;;
74793;SDS011;63320;50.768;6.724;2023-03-24T10:03:25;11.63;;;1.45;;
74793;SDS011;63320;50.768;6.724;2023-03-24T10:05:50;7.00;;;1.15;;
74793;SDS011;63320;50.768;6.724;2023-03-24T10:08:20;6.05;;;1.30;;
74793;SDS011;63320;50.768;6.724;2023-03-24T10:10:56;9.10;;;1.33;;
74793;SDS011;63320;50.768;6.724;2023-03-24T10:13:27;6.90;;;1.30;;
74793;SDS011;63320;50.768;6.724;2023-03-24T10:15:58;5.47;;;0.85;;
74793;SDS011;63320;50.768;6.724;2023-03-24T10:18:32;4.18;;;0.80;;
74793;SDS011;63320;50.768;6.724;2023-03-24T10:23:31;5.90;;;1.00;;
74793;SDS011;63320;50.768;6.724;2023-03-24T10:26:04;5.82;;;1.00;;
74793;SDS011;63320;50.768;6.724;2023-03-24T10:28:39;5.25;;;1.40;;
74793;SDS011;63320;50.768;6.724;2023-03-24T10:31:12;6.10;;;1.05;;
74793;SDS011;63320;50.768;6.724;2023-03-24T10:33:40;7.97;;;1.17;;
74793;SDS011;63320;50.768;6.724;2023-03-24T10:36:08;8.65;;;1.35;;
74793;SDS011;63320;50.768;6.724;2023-03-24T10:38:36;8.80;;;1.30;;
74793;SDS011;63320;50.768;6.724;2023-03-24T10:41:03;8.38;;;1.30;;
74793;SDS011;63320;50.768;6.724;2023-03-24T10:43:29;8.80;;;1.70;;
74793;SDS011;63320;50.768;6.724;2023-03-24T10:45:56;7.47;;;1.00;;
74793;SDS011;63320;50.768;6.724;2023-03-24T10:48:39;5.80;;;1.00;;
74793;SDS011;63320;50.768;6.724;2023-03-24T10:51:09;8.50;;;0.90;;
74793;SDS011;63320;50.768;6.724;2023-03-24T10:53:38;5.18;;;0.90;;
74793;SDS011;63320;50.768;6.724;2023-03-24T10:56:05;6.18;;;0.95;;
74793;SDS011;63320;50.768;6.724;2023-03-24T10:58:34;6.00;;;1.00;;
74793;SDS011;63320;50.768;6.724;2023-03-24T11:01:02;6.85;;;1.17;;
74793;SDS011;63320;50.768;6.724;2023-03-24T11:03:33;7.32;;;0.90;;
74793;SDS011;63320;50.768;6.724;2023-03-24T11:06:01;6.78;;;1.00;;
74793;SDS011;63320;50.768;6.724;2023-03-24T11:08:31;7.65;;;1.25;;
74793;SDS011;63320;50.768;6.724;2023-03-24T11:10:59;7.03;;;1.30;;
74793;SDS011;63320;50.768;6.724;2023-03-24T11:13:29;6.88;;;1.20;;
74793;SDS011;63320;50.768;6.724;2023-03-24T11:16:03;10.18;;;1.52;;
74793;SDS011;63320;50.768;6.724;2023-03-24T11:18:33;8.70;;;1.10;;
74793;SDS011;63320;50.768;6.724;2023-03-24T11:20:59;6.45;;;1.10;;
74793;SDS011;63320;50.768;6.724;2023-03-24T11:23:26;7.60;;;0.98;;
74793;SDS011;63320;50.768;6.724;2023-03-24T11:26:01;8.57;;;1.17;;
74793;SDS011;63320;50.768;6.724;2023-03-24T11:28:33;4.80;;;0.80;;
74793;SDS011;63320;50.768;6.724;2023-03-24T11:31:04;6.80;;;1.20;;
74793;SDS011;63320;50.768;6.724;2023-03-24T11:33:32;4.50;;;1.00;;
74793;SDS011;63320;50.768;6.724;2023-03-24T11:36:00;8.65;;;1.15;;
74793;SDS011;63320;50.768;6.724;2023-03-24T11:38:33;7.38;;;1.27;;
74793;SDS011;63320;50.768;6.724;2023-03-24T11:40:59;6.43;;;0.95;;
74793;SDS011;63320;50.768;6.724;2023-03-24T11:43:26;5.15;;;0.93;;
74793;SDS011;63320;50.768;6.724;2023-03-24T11:45:55;7.95;;;1.27;;
74793;SDS011;63320;50.768;6.724;2023-03-24T11:48:25;7.53;;;1.13;;
74793;SDS011;63320;50.768;6.724;2023-03-24T11:50:54;5.30;;;1.02;;
74793;SDS011;63320;50.768;6.724;2023-03-24T11:53:22;5.82;;;1.05;;
74793;SDS011;63320;50.768;6.724;2023-03-24T11:55:53;6.50;;;1.00;;
74793;SDS011;63320;50.768;6.724;2023-03-24T11:58:27;6.40;;;1.10;;
74793;SDS011;63320;50.768;6.724;2023-03-24T12:01:01;6.70;;;0.88;;
74793;SDS011;63320;50.768;6.724;2023-03-24T12:03:34;10.35;;;1.50;;
74793;SDS011;63320;50.768;6.724;2023-03-24T12:06:23;6.40;;;1.00;;
74793;SDS011;63320;50.768;6.724;2023-03-24T12:09:09;6.10;;;1.38;;
74793;SDS011;63320;50.768;6.724;2023-03-24T12:11:48;5.60;;;0.90;;
74793;SDS011;63320;50.768;6.724;2023-03-24T12:14:22;6.50;;;1.23;;
74793;SDS011;63320;50.768;6.724;2023-03-24T12:16:57;4.18;;;1.05;;
74793;SDS011;63320;50.768;6.724;2023-03-24T12:22:09;7.13;;;1.10;;
74793;SDS011;63320;50.768;6.724;2023-03-24T12:25:02;4.93;;;1.10;;
74793;SDS011;63320;50.768;6.724;2023-03-24T12:27:45;5.35;;;1.15;;
74793;SDS011;63320;50.768;6.724;2023-03-24T12:30:19;5.97;;;1.20;;
74793;SDS011;63320;50.768;6.724;2023-03-24T12:32:57;4.53;;;1.35;;
74793;SDS011;63320;50.768;6.724;2023-03-24T12:35:39;8.98;;;1.08;;
74793;SDS011;63320;50.768;6.724;2023-03-24T12:38:19;6.25;;;0.80;;
74793;SDS011;63320;50.768;6.724;2023-03-24T12:40:59;6.55;;;1.30;;
74793;SDS011;63320;50.768;6.724;2023-03-24T12:43:56;5.75;;;0.90;;
74793;SDS011;63320;50.768;6.724;2023-03-24T12:46:37;9.10;;;1.20;;
74793;SDS011;63320;50.768;6.724;2023-03-24T12:49:21;6.20;;;1.00;;
74793;SDS011;63320;50.768;6.724;2023-03-24T12:52:03;5.78;;;1.25;;
74793;SDS011;63320;50.768;6.724;2023-03-24T12:54:40;4.40;;;0.90;;
74793;SDS011;63320;50.768;6.724;2023-03-24T12:57:12;6.35;;;1.08;;
74793;SDS011;63320;50.768;6.724;2023-03-24T12:59:42;5.68;;;1.10;;
74793;SDS011;63320;50.768;6.724;2023-03-24T13:02:16;8.13;;;1.20;;
74793;SDS011;63320;50.768;6.724;2023-03-24T13:04:48;8.13;;;1.08;;
74793;SDS011;63320;50.768;6.724;2023-03-24T13:07:17;6.55;;;0.95;;
74793;SDS011;63320;50.768;6.724;2023-03-24T13:09:45;7.20;;;1.42;;
74793;SDS011;63320;50.768;6.724;2023-03-24T13:12:16;5.82;;;0.80;;
74793;SDS011;63320;50.768;6.724;2023-03-24T13:14:47;6.85;;;1.30;;
74793;SDS011;63320;50.768;6.724;2023-03-24T13:17:17;6.50;;;1.00;;
74793;SDS011;63320;50.768;6.724;2023-03-24T13:19:47;6.30;;;0.98;;
74793;SDS011;63320;50.768;6.724;2023-03-24T13:22:16;4.97;;;0.88;;
74793;SDS011;63320;50.768;6.724;2023-03-24T13:24:44;8.63;;;1.10;;
74793;SDS011;63320;50.768;6.724;2023-03-24T13:27:11;5.43;;;0.90;;
74793;SDS011;63320;50.768;6.724;2023-03-24T13:32:43;6.82;;;0.80;;
74793;SDS011;63320;50.768;6.724;2023-03-24T13:35:17;5.32;;;1.33;;
74793;SDS011;63320;50.768;6.724;2023-03-24T13:38:03;4.45;;;0.80;;
74793;SDS011;63320;50.768;6.724;2023-03-24T13:40:32;5.93;;;0.85;;
74793;SDS011;63320;50.768;6.724;2023-03-24T13:43:06;4.85;;;1.05;;
74793;SDS011;63320;50.768;6.724;2023-03-24T13:45:38;4.65;;;0.65;;
74793;SDS011;63320;50.768;6.724;2023-03-24T13:48:14;7.13;;;0.80;;
74793;SDS011;63320;50.768;6.724;2023-03-24T13:50:52;4.70;;;0.82;;
74793;SDS011;63320;50.768;6.724;2023-03-24T13:53:23;5.43;;;1.05;;
74793;SDS011;63320;50.768;6.724;2023-03-24T13:58:22;5.72;;;0.90;;
74793;SDS011;63320;50.768;6.724;2023-03-24T14:01:04;4.45;;;0.88;;
74793;SDS011;63320;50.768;6.724;2023-03-24T14:03:39;4.07;;;0.80;;
74793;SDS011;63320;50.768;6.724;2023-03-24T14:06:06;5.35;;;0.70;;
74793;SDS011;63320;50.768;6.724;2023-03-24T14:08:33;4.90;;;0.70;;
74793;SDS011;63320;50.768;6.724;2023-03-24T14:11:08;2.33;;;0.60;;
74793;SDS011;63320;50.768;6.724;2023-03-24T14:13:49;4.57;;;0.73;;
74793;SDS011;63320;50.768;6.724;2023-03-24T14:16:40;3.60;;;0.73;;
74793;SDS011;63320;50.768;6.724;2023-03-24T14:19:17;7.32;;;0.90;;
74793;SDS011;63320;50.768;6.724;2023-03-24T14:21:45;6.22;;;1.05;;
74793;SDS011;63320;50.768;6.724;2023-03-24T14:24:15;6.57;;;1.23;;
74793;SDS011;63320;50.768;6.724;2023-03-24T14:26:47;6.45;;;0.90;;
74793;SDS011;63320;50.768;6.724;2023-03-24T14:29:31;4.95;;;0.95;;
74793;SDS011;63320;50.768;6.724;2023-03-24T14:32:01;8.18;;;1.25;;
74793;SDS011;63320;50.768;6.724;2023-03-24T14:34:28;7.03;;;1.15;;
74793;SDS011;63320;50.768;6.724;2023-03-24T14:36:57;6.25;;;1.13;;
74793;SDS011;63320;50.768;6.724;2023-03-24T14:39:25;6.93;;;1.35;;
74793;SDS011;63320;50.768;6.724;2023-03-24T14:42:00;8.85;;;1.30;;
74793;SDS011;63320;50.768;6.724;2023-03-24T14:48:05;4.78;;;1.00;;
74793;SDS011;63320;50.768;6.724;2023-03-24T14:50:47;3.58;;;0.88;;
74793;SDS011;63320;50.768;6.724;2023-03-24T14:53:16;2.55;;;0.52;;
74793;SDS011;63320;50.768;6.724;2023-03-24T14:55:43;3.55;;;0.77;;
74793;SDS011;63320;50.768;6.724;2023-03-24T14:58:11;3.33;;;0.60;;
74793;SDS011;63320;50.768;6.724;2023-03-24T15:00:47;3.83;;;0.73;;
74793;SDS011;63320;50.768;6.724;2023-03-24T15:03:16;5.47;;;0.90;;
74793;SDS011;63320;50.768;6.724;2023-03-24T15:05:46;4.15;;;0.80;;
74793;SDS011;63320;50.768;6.724;2023-03-24T15:08:12;3.97;;;0.80;;
74793;SDS011;63320;50.768;6.724;2023-03-24T15:10:41;5.03;;;0.85;;
74793;SDS011;63320;50.768;6.724;2023-03-24T15:13:33;4.65;;;0.82;;
74793;SDS011;63320;50.768;6.724;2023-03-24T15:16:02;7.60;;;1.10;;